sensor_id;sensor_type;location;lat;lon;timestamp;pressure;altitude;pressure_sealevel;temperature;humidity
6024;BME280;3040;42.654;23.296;2023-07-20T00:01:49;93976.88;;;25.80;52.89
6024;BME280;3040;42.654;23.296;2023-07-20T00:04:16;93974.63;;;26.00;54.70
6024;BME280;3040;42.654;23.296;2023-07-20T00:06:43;93971.00;;;25.69;54.48
6024;BME280;3040;42.654;23.296;2023-07-20T00:09:10;93957.75;;;25.58;53.01
6024;BME280;3040;42.654;23.296;2023-07-20T00:11:39;93964.50;;;25.66;53.61
6024;BME280;3040;42.654;23.296;2023-07-20T00:14:06;93961.00;;;25.66;54.41
6024;BME280;3040;42.654;23.296;2023-07-20T00:16:33;93969.38;;;25.71;54.73
6024;BME280;3040;42.654;23.296;2023-07-20T00:19:00;93972.84;;;25.84;54.63
6024;BME280;3040;42.654;23.296;2023-07-20T00:21:26;93978.53;;;25.99;54.23
6024;BME280;3040;42.654;23.296;2023-07-20T00:23:53;93968.97;;;26.16;53.93
6024;BME280;3040;42.654;23.296;2023-07-20T00:26:20;93975.53;;;26.19;53.95
6024;BME280;3040;42.654;23.296;2023-07-20T00:28:50;93983.84;;;26.15;53.72
6024;BME280;3040;42.654;23.296;2023-07-20T00:31:17;93983.97;;;25.77;53.76
6024;BME280;3040;42.654;23.296;2023-07-20T00:33:44;93983.38;;;25.35;55.70
6024;BME280;3040;42.654;23.296;2023-07-20T00:36:10;93955.59;;;25.28;54.85
6024;BME280;3040;42.654;23.296;2023-07-20T00:38:38;93981.03;;;25.72;54.30
6024;BME280;3040;42.654;23.296;2023-07-20T00:41:06;93976.59;;;25.65;53.91
6024;BME280;3040;42.654;23.296;2023-07-20T00:43:33;93972.06;;;25.84;53.95
6024;BME280;3040;42.654;23.296;2023-07-20T00:46:01;93967.91;;;25.92;53.44
6024;BME280;3040;42.654;23.296;2023-07-20T00:48:29;93964.88;;;26.12;52.68
6024;BME280;3040;42.654;23.296;2023-07-20T00:50:56;93971.81;;;26.25;54.34
6024;BME280;3040;42.654;23.296;2023-07-20T00:53:24;93965.22;;;26.36;54.87
6024;BME280;3040;42.654;23.296;2023-07-20T00:55:51;93961.63;;;26.39;54.14
6024;BME280;3040;42.654;23.296;2023-07-20T00:58:18;93956.78;;;26.43;54.36
6024;BME280;3040;42.654;23.296;2023-07-20T01:00:45;93936.50;;;26.22;54.23
6024;BME280;3040;42.654;23.296;2023-07-20T01:03:13;93962.50;;;26.36;54.96
6024;BME280;3040;42.654;23.296;2023-07-20T01:05:44;93951.34;;;25.86;53.97
6024;BME280;3040;42.654;23.296;2023-07-20T01:08:18;93923.88;;;25.59;53.82
6024;BME280;3040;42.654;23.296;2023-07-20T01:10:54;93962.16;;;25.77;54.12
6024;BME280;3040;42.654;23.296;2023-07-20T01:13:24;93969.66;;;25.86;56.10
6024;BME280;3040;42.654;23.296;2023-07-20T01:15:57;93936.81;;;25.68;56.29
6024;BME280;3040;42.654;23.296;2023-07-20T01:18:28;93962.47;;;25.92;56.49
6024;BME280;3040;42.654;23.296;2023-07-20T01:20:59;93967.56;;;25.90;55.99
6024;BME280;3040;42.654;23.296;2023-07-20T01:23:50;93972.69;;;25.88;55.51
6024;BME280;3040;42.654;23.296;2023-07-20T01:26:47;93965.09;;;25.83;56.68
6024;BME280;3040;42.654;23.296;2023-07-20T01:29:28;93963.16;;;25.71;56.45
6024;BME280;3040;42.654;23.296;2023-07-20T01:32:00;93972.22;;;25.68;56.99
6024;BME280;3040;42.654;23.296;2023-07-20T01:34:29;93959.91;;;25.50;58.39
6024;BME280;3040;42.654;23.296;2023-07-20T01:36:57;93967.78;;;25.48;57.60
6024;BME280;3040;42.654;23.296;2023-07-20T01:39:24;93962.31;;;25.48;57.58
6024;BME280;3040;42.654;23.296;2023-07-20T01:41:51;93967.31;;;25.63;57.73
6024;BME280;3040;42.654;23.296;2023-07-20T01:44:18;93966.78;;;25.55;57.82
6024;BME280;3040;42.654;23.296;2023-07-20T01:46:45;93961.22;;;25.46;57.96
6024;BME280;3040;42.654;23.296;2023-07-20T01:49:13;93961.16;;;24.99;59.46
6024;BME280;3040;42.654;23.296;2023-07-20T01:51:41;93932.91;;;24.42;60.77
6024;BME280;3040;42.654;23.296;2023-07-20T01:54:07;93954.25;;;24.56;60.94
6024;BME280;3040;42.654;23.296;2023-07-20T01:56:34;93959.34;;;24.54;60.84
6024;BME280;3040;42.654;23.296;2023-07-20T01:59:01;93957.41;;;24.55;60.90
6024;BME280;3040;42.654;23.296;2023-07-20T02:01:28;93936.50;;;24.39;61.67
6024;BME280;3040;42.654;23.296;2023-07-20T02:03:55;93949.56;;;24.44;61.67
6024;BME280;3040;42.654;23.296;2023-07-20T02:06:23;93920.09;;;24.14;61.90
6024;BME280;3040;42.654;23.296;2023-07-20T02:08:50;93949.13;;;24.46;61.98
6024;BME280;3040;42.654;23.296;2023-07-20T02:11:16;93950.34;;;24.57;62.42
6024;BME280;3040;42.654;23.296;2023-07-20T02:13:43;93949.44;;;24.48;62.42
6024;BME280;3040;42.654;23.296;2023-07-20T02:16:10;93950.00;;;24.14;63.83
6024;BME280;3040;42.654;23.296;2023-07-20T02:18:37;93955.63;;;24.07;63.48
6024;BME280;3040;42.654;23.296;2023-07-20T02:21:04;93952.22;;;24.19;63.44
6024;BME280;3040;42.654;23.296;2023-07-20T02:23:32;93958.88;;;24.30;63.27
6024;BME280;3040;42.654;23.296;2023-07-20T02:25:59;93958.25;;;24.39;62.81
6024;BME280;3040;42.654;23.296;2023-07-20T02:28:26;93956.19;;;24.43;62.35
6024;BME280;3040;42.654;23.296;2023-07-20T02:30:54;93952.59;;;24.33;62.28
6024;BME280;3040;42.654;23.296;2023-07-20T02:33:21;93945.00;;;24.41;62.12
6024;BME280;3040;42.654;23.296;2023-07-20T02:35:47;93946.00;;;24.47;62.07
6024;BME280;3040;42.654;23.296;2023-07-20T02:38:14;93944.25;;;24.53;62.16
6024;BME280;3040;42.654;23.296;2023-07-20T02:40:42;93939.47;;;24.57;61.83
6024;BME280;3040;42.654;23.296;2023-07-20T02:43:09;93937.53;;;24.58;62.00
6024;BME280;3040;42.654;23.296;2023-07-20T02:45:40;93789.31;;;23.45;61.78
6024;BME280;3040;42.654;23.296;2023-07-20T02:48:07;93930.88;;;23.88;63.90
6024;BME280;3040;42.654;23.296;2023-07-20T02:50:34;93916.13;;;23.89;63.99
6024;BME280;3040;42.654;23.296;2023-07-20T02:53:01;93910.63;;;23.93;64.18
6024;BME280;3040;42.654;23.296;2023-07-20T02:55:27;93920.72;;;23.92;64.71
6024;BME280;3040;42.654;23.296;2023-07-20T02:57:56;93926.28;;;24.02;64.25
6024;BME280;3040;42.654;23.296;2023-07-20T03:00:22;93928.78;;;24.09;64.37
6024;BME280;3040;42.654;23.296;2023-07-20T03:02:49;93925.53;;;24.14;64.07
6024;BME280;3040;42.654;23.296;2023-07-20T03:05:21;93910.69;;;24.18;63.67
6024;BME280;3040;42.654;23.296;2023-07-20T03:07:48;93925.50;;;24.30;62.91
6024;BME280;3040;42.654;23.296;2023-07-20T03:10:15;93926.19;;;24.34;62.45
6024;BME280;3040;42.654;23.296;2023-07-20T03:12:42;93898.25;;;24.05;62.59
6024;BME280;3040;42.654;23.296;2023-07-20T03:15:11;93925.81;;;24.19;62.36
6024;BME280;3040;42.654;23.296;2023-07-20T03:17:37;93930.47;;;24.19;62.00
6024;BME280;3040;42.654;23.296;2023-07-20T03:20:05;93908.75;;;23.90;61.93
6024;BME280;3040;42.654;23.296;2023-07-20T03:22:35;93942.03;;;24.07;62.42
6024;BME280;3040;42.654;23.296;2023-07-20T03:25:01;93941.72;;;24.05;62.60
6024;BME280;3040;42.654;23.296;2023-07-20T03:27:29;93937.59;;;24.13;62.23
6024;BME280;3040;42.654;23.296;2023-07-20T03:29:56;93932.50;;;24.15;61.89
6024;BME280;3040;42.654;23.296;2023-07-20T03:32:24;93937.03;;;24.34;62.16
6024;BME280;3040;42.654;23.296;2023-07-20T03:34:51;93943.59;;;24.49;62.23
6024;BME280;3040;42.654;23.296;2023-07-20T03:37:18;93941.44;;;24.15;61.72
6024;BME280;3040;42.654;23.296;2023-07-20T03:39:44;93941.19;;;24.10;62.84
6024;BME280;3040;42.654;23.296;2023-07-20T03:42:11;93949.84;;;24.21;62.51
6024;BME280;3040;42.654;23.296;2023-07-20T03:44:38;93821.56;;;23.43;62.15
6024;BME280;3040;42.654;23.296;2023-07-20T03:47:05;93935.53;;;24.33;62.18
6024;BME280;3040;42.654;23.296;2023-07-20T03:49:33;93941.84;;;24.43;62.41
6024;BME280;3040;42.654;23.296;2023-07-20T03:52:00;93948.16;;;24.52;62.73
6024;BME280;3040;42.654;23.296;2023-07-20T03:54:28;93925.44;;;24.46;62.21
6024;BME280;3040;42.654;23.296;2023-07-20T03:56:55;93949.25;;;24.67;61.51
6024;BME280;3040;42.654;23.296;2023-07-20T03:59:22;93951.97;;;24.67;60.87
6024;BME280;3040;42.654;23.296;2023-07-20T04:01:49;93943.72;;;24.58;61.06
6024;BME280;3040;42.654;23.296;2023-07-20T04:04:16;93959.53;;;24.89;61.04
6024;BME280;3040;42.654;23.296;2023-07-20T04:06:44;93953.22;;;25.04;61.22
6024;BME280;3040;42.654;23.296;2023-07-20T04:09:11;93936.69;;;24.99;59.81
6024;BME280;3040;42.654;23.296;2023-07-20T04:11:38;93760.53;;;23.89;60.09
6024;BME280;3040;42.654;23.296;2023-07-20T04:14:05;93932.44;;;25.10;60.13
6024;BME280;3040;42.654;23.296;2023-07-20T04:16:32;93932.09;;;25.21;60.79
6024;BME280;3040;42.654;23.296;2023-07-20T04:18:59;93929.97;;;25.38;61.36
6024;BME280;3040;42.654;23.296;2023-07-20T04:21:27;93930.63;;;25.54;61.80
6024;BME280;3040;42.654;23.296;2023-07-20T04:23:55;93936.50;;;25.66;60.92
6024;BME280;3040;42.654;23.296;2023-07-20T04:26:22;93938.84;;;25.76;60.59
6024;BME280;3040;42.654;23.296;2023-07-20T04:28:49;93931.06;;;25.87;60.28
6024;BME280;3040;42.654;23.296;2023-07-20T04:31:18;93930.09;;;25.81;58.96
6024;BME280;3040;42.654;23.296;2023-07-20T04:33:44;93925.19;;;25.89;59.24
6024;BME280;3040;42.654;23.296;2023-07-20T04:36:11;93907.53;;;25.81;59.50
6024;BME280;3040;42.654;23.296;2023-07-20T04:38:40;93929.00;;;26.13;59.10
6024;BME280;3040;42.654;23.296;2023-07-20T04:41:08;93920.63;;;26.29;59.47
6024;BME280;3040;42.654;23.296;2023-07-20T04:43:35;93922.22;;;26.40;58.97
6024;BME280;3040;42.654;23.296;2023-07-20T04:46:02;93921.94;;;26.47;58.98
6024;BME280;3040;42.654;23.296;2023-07-20T04:48:28;93925.75;;;26.49;59.55
6024;BME280;3040;42.654;23.296;2023-07-20T04:50:55;93931.06;;;26.53;58.70
6024;BME280;3040;42.654;23.296;2023-07-20T04:53:22;93921.75;;;26.63;58.73
6024;BME280;3040;42.654;23.296;2023-07-20T04:55:49;93926.19;;;26.69;58.31
6024;BME280;3040;42.654;23.296;2023-07-20T04:58:22;93919.09;;;26.81;57.24
6024;BME280;3040;42.654;23.296;2023-07-20T05:00:49;93880.78;;;26.54;57.00
6024;BME280;3040;42.654;23.296;2023-07-20T05:03:15;93898.75;;;26.73;57.36
6024;BME280;3040;42.654;23.296;2023-07-20T05:05:42;93926.63;;;26.99;57.12
6024;BME280;3040;42.654;23.296;2023-07-20T05:08:09;93898.84;;;26.91;56.06
6024;BME280;3040;42.654;23.296;2023-07-20T05:10:36;93919.84;;;27.12;55.70
6024;BME280;3040;42.654;23.296;2023-07-20T05:13:03;93927.91;;;27.25;55.55
6024;BME280;3040;42.654;23.296;2023-07-20T05:15:32;93927.78;;;27.29;56.08
6024;BME280;3040;42.654;23.296;2023-07-20T05:17:59;93925.66;;;27.33;55.05
6024;BME280;3040;42.654;23.296;2023-07-20T05:20:26;93925.81;;;27.38;55.52
6024;BME280;3040;42.654;23.296;2023-07-20T05:22:53;93935.69;;;27.45;54.99
6024;BME280;3040;42.654;23.296;2023-07-20T05:25:19;93928.78;;;27.53;54.81
6024;BME280;3040;42.654;23.296;2023-07-20T05:27:48;93932.25;;;27.53;54.62
6024;BME280;3040;42.654;23.296;2023-07-20T05:30:16;93938.28;;;27.39;54.60
6024;BME280;3040;42.654;23.296;2023-07-20T05:32:44;93922.47;;;27.34;54.39
6024;BME280;3040;42.654;23.296;2023-07-20T05:35:13;93946.97;;;27.56;53.82
6024;BME280;3040;42.654;23.296;2023-07-20T05:37:41;93946.09;;;27.68;53.06
6024;BME280;3040;42.654;23.296;2023-07-20T05:40:08;93939.13;;;27.76;51.87
6024;BME280;3040;42.654;23.296;2023-07-20T05:42:37;93945.81;;;27.84;52.82
6024;BME280;3040;42.654;23.296;2023-07-20T05:45:05;93952.78;;;27.94;51.73
6024;BME280;3040;42.654;23.296;2023-07-20T05:47:32;93952.78;;;27.94;52.21
6024;BME280;3040;42.654;23.296;2023-07-20T05:50:00;93945.81;;;27.84;51.46
6024;BME280;3040;42.654;23.296;2023-07-20T05:52:28;93951.56;;;27.77;52.26
6024;BME280;3040;42.654;23.296;2023-07-20T05:54:55;93954.94;;;27.90;51.89
6024;BME280;3040;42.654;23.296;2023-07-20T05:57:22;93928.66;;;27.84;51.83
6024;BME280;3040;42.654;23.296;2023-07-20T05:59:49;93949.75;;;28.02;50.70
6024;BME280;3040;42.654;23.296;2023-07-20T06:02:16;93947.94;;;28.08;50.41
6024;BME280;3040;42.654;23.296;2023-07-20T06:04:42;93952.38;;;28.14;49.60
6024;BME280;3040;42.654;23.296;2023-07-20T06:07:11;93948.53;;;27.93;49.77
6024;BME280;3040;42.654;23.296;2023-07-20T06:09:38;93951.56;;;27.86;49.54
6024;BME280;3040;42.654;23.296;2023-07-20T06:12:06;93949.72;;;27.65;50.22
6024;BME280;3040;42.654;23.296;2023-07-20T06:14:33;93943.03;;;27.57;50.51
6024;BME280;3040;42.654;23.296;2023-07-20T06:16:59;93954.31;;;27.28;52.04
6024;BME280;3040;42.654;23.296;2023-07-20T06:19:26;93922.00;;;27.18;52.17
6024;BME280;3040;42.654;23.296;2023-07-20T06:21:53;93932.66;;;27.43;50.83
6024;BME280;3040;42.654;23.296;2023-07-20T06:24:21;93923.63;;;27.73;50.79
6024;BME280;3040;42.654;23.296;2023-07-20T06:26:48;93924.38;;;27.92;50.20
6024;BME280;3040;42.654;23.296;2023-07-20T06:29:15;93904.47;;;28.10;48.41
6024;BME280;3040;42.654;23.296;2023-07-20T06:31:41;93887.78;;;28.08;47.86
6024;BME280;3040;42.654;23.296;2023-07-20T06:34:08;93921.66;;;28.38;48.63
6024;BME280;3040;42.654;23.296;2023-07-20T06:36:35;93919.91;;;28.58;47.02
6024;BME280;3040;42.654;23.296;2023-07-20T06:39:02;93922.34;;;28.75;44.13
6024;BME280;3040;42.654;23.296;2023-07-20T06:41:30;93915.44;;;28.88;46.35
6024;BME280;3040;42.654;23.296;2023-07-20T06:43:57;93924.81;;;29.05;45.77
6024;BME280;3040;42.654;23.296;2023-07-20T06:46:24;93884.84;;;28.99;44.64
6024;BME280;3040;42.654;23.296;2023-07-20T06:48:52;93919.53;;;29.35;45.87
6024;BME280;3040;42.654;23.296;2023-07-20T06:51:19;93924.56;;;29.27;45.03
6024;BME280;3040;42.654;23.296;2023-07-20T06:53:45;93903.47;;;29.42;46.21
6024;BME280;3040;42.654;23.296;2023-07-20T06:56:12;93867.28;;;29.38;45.94
6024;BME280;3040;42.654;23.296;2023-07-20T06:58:40;93921.38;;;30.00;45.21
6024;BME280;3040;42.654;23.296;2023-07-20T07:01:07;93945.47;;;30.34;44.02
6024;BME280;3040;42.654;23.296;2023-07-20T07:03:34;93946.97;;;30.36;43.66
6024;BME280;3040;42.654;23.296;2023-07-20T07:06:02;93926.44;;;30.46;41.87
6024;BME280;3040;42.654;23.296;2023-07-20T07:08:29;93960.00;;;30.79;42.33
6024;BME280;3040;42.654;23.296;2023-07-20T07:10:55;93956.41;;;30.73;42.14
6024;BME280;3040;42.654;23.296;2023-07-20T07:13:22;93959.59;;;30.57;41.82
6024;BME280;3040;42.654;23.296;2023-07-20T07:15:51;93948.84;;;30.29;42.70
6024;BME280;3040;42.654;23.296;2023-07-20T07:18:18;93990.44;;;30.52;44.49
6024;BME280;3040;42.654;23.296;2023-07-20T07:20:54;93970.56;;;30.57;43.73
6024;BME280;3040;42.654;23.296;2023-07-20T07:23:21;93997.66;;;30.64;45.01
6024;BME280;3040;42.654;23.296;2023-07-20T07:25:48;93995.59;;;30.73;44.44
6024;BME280;3040;42.654;23.296;2023-07-20T07:28:15;93995.00;;;30.55;44.51
6024;BME280;3040;42.654;23.296;2023-07-20T07:30:41;93992.38;;;30.75;44.08
6024;BME280;3040;42.654;23.296;2023-07-20T07:33:09;93995.78;;;30.70;44.51
6024;BME280;3040;42.654;23.296;2023-07-20T07:35:36;93904.06;;;29.46;45.81
6024;BME280;3040;42.654;23.296;2023-07-20T07:38:03;93975.09;;;30.45;47.28
6024;BME280;3040;42.654;23.296;2023-07-20T07:40:30;93873.38;;;29.81;46.71
6024;BME280;3040;42.654;23.296;2023-07-20T07:42:57;93973.53;;;30.83;45.99
6024;BME280;3040;42.654;23.296;2023-07-20T07:45:24;93984.56;;;29.49;47.15
6024;BME280;3040;42.654;23.296;2023-07-20T07:47:51;93972.25;;;28.42;50.68
6024;BME280;3040;42.654;23.296;2023-07-20T07:50:19;93960.63;;;28.93;51.52
6024;BME280;3040;42.654;23.296;2023-07-20T07:52:46;93927.75;;;29.59;49.47
6024;BME280;3040;42.654;23.296;2023-07-20T07:55:13;93931.59;;;30.14;48.94
6024;BME280;3040;42.654;23.296;2023-07-20T07:57:42;93950.25;;;30.10;47.73
6024;BME280;3040;42.654;23.296;2023-07-20T08:00:09;93954.50;;;30.50;48.56
6024;BME280;3040;42.654;23.296;2023-07-20T08:02:40;93937.06;;;30.97;46.65
6024;BME280;3040;42.654;23.296;2023-07-20T08:05:07;93946.75;;;31.42;45.77
6024;BME280;3040;42.654;23.296;2023-07-20T08:07:35;93965.53;;;31.29;45.80
6024;BME280;3040;42.654;23.296;2023-07-20T08:10:03;93957.34;;;31.14;45.79
6024;BME280;3040;42.654;23.296;2023-07-20T08:12:30;93988.31;;;29.84;49.50
6024;BME280;3040;42.654;23.296;2023-07-20T08:14:57;93996.72;;;30.28;48.66
6024;BME280;3040;42.654;23.296;2023-07-20T08:17:24;93994.56;;;29.85;48.64
6024;BME280;3040;42.654;23.296;2023-07-20T08:19:51;93993.81;;;29.61;50.81
6024;BME280;3040;42.654;23.296;2023-07-20T08:22:17;93992.00;;;29.16;51.93
6024;BME280;3040;42.654;23.296;2023-07-20T08:24:46;94015.06;;;28.82;48.25
6024;BME280;3040;42.654;23.296;2023-07-20T08:27:13;93993.50;;;28.75;47.65
6024;BME280;3040;42.654;23.296;2023-07-20T08:29:39;93996.22;;;28.84;46.21
6024;BME280;3040;42.654;23.296;2023-07-20T08:32:06;93998.88;;;29.11;45.96
6024;BME280;3040;42.654;23.296;2023-07-20T08:34:33;93981.59;;;28.96;44.65
6024;BME280;3040;42.654;23.296;2023-07-20T08:37:00;94020.44;;;29.18;45.39
6024;BME280;3040;42.654;23.296;2023-07-20T08:39:27;94017.53;;;28.43;48.03
6024;BME280;3040;42.654;23.296;2023-07-20T08:41:55;94006.28;;;28.23;48.54
6024;BME280;3040;42.654;23.296;2023-07-20T08:44:24;94008.53;;;28.70;46.87
6024;BME280;3040;42.654;23.296;2023-07-20T08:46:52;93954.28;;;28.68;44.62
6024;BME280;3040;42.654;23.296;2023-07-20T08:49:20;93968.13;;;28.47;46.25
6024;BME280;3040;42.654;23.296;2023-07-20T08:51:48;94003.56;;;28.23;46.88
6024;BME280;3040;42.654;23.296;2023-07-20T08:54:16;93990.13;;;27.79;47.31
6024;BME280;3040;42.654;23.296;2023-07-20T08:56:45;93983.78;;;28.28;47.09
6024;BME280;3040;42.654;23.296;2023-07-20T08:59:16;93982.09;;;28.03;46.64
6024;BME280;3040;42.654;23.296;2023-07-20T09:01:44;93985.28;;;28.11;47.27
6024;BME280;3040;42.654;23.296;2023-07-20T09:04:11;93940.84;;;27.43;49.86
6024;BME280;3040;42.654;23.296;2023-07-20T09:06:38;93983.09;;;27.51;48.99
6024;BME280;3040;42.654;23.296;2023-07-20T09:09:06;93968.88;;;27.92;49.53
6024;BME280;3040;42.654;23.296;2023-07-20T09:11:32;93974.50;;;28.80;46.64
6024;BME280;3040;42.654;23.296;2023-07-20T09:14:03;93977.41;;;28.49;48.22
6024;BME280;3040;42.654;23.296;2023-07-20T09:16:32;93976.78;;;28.54;45.87
6024;BME280;3040;42.654;23.296;2023-07-20T09:18:59;93963.13;;;28.36;46.15
6024;BME280;3040;42.654;23.296;2023-07-20T09:21:29;93966.47;;;28.49;45.82
6024;BME280;3040;42.654;23.296;2023-07-20T09:23:56;93958.41;;;28.00;45.71
6024;BME280;3040;42.654;23.296;2023-07-20T09:26:23;93943.38;;;28.23;45.58
6024;BME280;3040;42.654;23.296;2023-07-20T09:28:52;93956.13;;;28.53;45.08
6024;BME280;3040;42.654;23.296;2023-07-20T09:31:21;93959.34;;;29.03;43.94
6024;BME280;3040;42.654;23.296;2023-07-20T09:33:52;93956.78;;;29.89;42.98
6024;BME280;3040;42.654;23.296;2023-07-20T09:36:19;93962.44;;;30.62;41.42
6024;BME280;3040;42.654;23.296;2023-07-20T09:38:46;93965.97;;;30.24;41.02
6024;BME280;3040;42.654;23.296;2023-07-20T09:41:13;93953.19;;;30.60;40.10
6024;BME280;3040;42.654;23.296;2023-07-20T09:43:40;93934.72;;;28.94;41.40
6024;BME280;3040;42.654;23.296;2023-07-20T09:46:07;93952.03;;;29.09;41.92
6024;BME280;3040;42.654;23.296;2023-07-20T09:48:35;93854.72;;;27.78;43.03
6024;BME280;3040;42.654;23.296;2023-07-20T09:51:03;93955.47;;;28.77;43.55
6024;BME280;3040;42.654;23.296;2023-07-20T09:53:32;93939.22;;;29.15;42.45
6024;BME280;3040;42.654;23.296;2023-07-20T09:55:59;93935.50;;;30.22;41.40
6024;BME280;3040;42.654;23.296;2023-07-20T09:58:26;93939.31;;;30.40;40.12
6024;BME280;3040;42.654;23.296;2023-07-20T10:00:56;93919.09;;;29.75;40.57
6024;BME280;3040;42.654;23.296;2023-07-20T10:03:28;93914.28;;;29.46;41.71
6024;BME280;3040;42.654;23.296;2023-07-20T10:05:57;93919.09;;;29.99;41.10
6024;BME280;3040;42.654;23.296;2023-07-20T10:08:29;93920.09;;;30.40;39.18
6024;BME280;3040;42.654;23.296;2023-07-20T10:10:59;93920.94;;;29.21;38.51
6024;BME280;3040;42.654;23.296;2023-07-20T10:13:27;93878.03;;;29.18;39.45
6024;BME280;3040;42.654;23.296;2023-07-20T10:15:59;93924.72;;;28.91;40.13
6024;BME280;3040;42.654;23.296;2023-07-20T10:18:30;93929.72;;;28.32;42.23
6024;BME280;3040;42.654;23.296;2023-07-20T10:20:59;93939.31;;;28.88;41.56
6024;BME280;3040;42.654;23.296;2023-07-20T10:23:28;93941.91;;;29.57;40.05
6024;BME280;3040;42.654;23.296;2023-07-20T10:25:56;93907.44;;;28.57;40.88
6024;BME280;3040;42.654;23.296;2023-07-20T10:28:24;93943.41;;;29.34;41.46
6024;BME280;3040;42.654;23.296;2023-07-20T10:30:51;93935.09;;;28.87;41.42
6024;BME280;3040;42.654;23.296;2023-07-20T10:33:18;93909.41;;;28.66;41.98
6024;BME280;3040;42.654;23.296;2023-07-20T10:35:52;93922.78;;;29.15;39.92
6024;BME280;3040;42.654;23.296;2023-07-20T10:38:19;93914.38;;;29.19;41.13
6024;BME280;3040;42.654;23.296;2023-07-20T10:40:55;93920.75;;;29.58;40.40
6024;BME280;3040;42.654;23.296;2023-07-20T10:43:22;93909.88;;;29.06;41.27
6024;BME280;3040;42.654;23.296;2023-07-20T10:45:50;93876.13;;;28.58;42.88
6024;BME280;3040;42.654;23.296;2023-07-20T10:48:18;93847.22;;;28.76;42.18
6024;BME280;3040;42.654;23.296;2023-07-20T10:50:46;93825.94;;;29.27;42.08
6024;BME280;3040;42.654;23.296;2023-07-20T10:53:32;93873.84;;;29.56;43.20
6024;BME280;3040;42.654;23.296;2023-07-20T10:56:08;93880.25;;;30.00;42.46
6024;BME280;3040;42.654;23.296;2023-07-20T10:58:37;93873.47;;;30.25;41.62
6024;BME280;3040;42.654;23.296;2023-07-20T11:01:04;93859.47;;;30.67;41.11
6024;BME280;3040;42.654;23.296;2023-07-20T11:03:33;93850.31;;;30.90;40.49
6024;BME280;3040;42.654;23.296;2023-07-20T11:06:29;93842.56;;;31.24;39.75
6024;BME280;3040;42.654;23.296;2023-07-20T11:09:04;93814.69;;;31.71;38.73
6024;BME280;3040;42.654;23.296;2023-07-20T11:11:33;93839.78;;;32.56;37.42
6024;BME280;3040;42.654;23.296;2023-07-20T11:14:02;93841.41;;;33.05;36.58
6024;BME280;3040;42.654;23.296;2023-07-20T11:16:37;93851.44;;;33.45;36.45
6024;BME280;3040;42.654;23.296;2023-07-20T11:19:06;93832.31;;;33.96;35.21
6024;BME280;3040;42.654;23.296;2023-07-20T11:21:37;93841.97;;;32.47;35.15
6024;BME280;3040;42.654;23.296;2023-07-20T11:24:05;93835.13;;;31.90;35.82
6024;BME280;3040;42.654;23.296;2023-07-20T11:26:48;93840.53;;;31.39;36.65
6024;BME280;3040;42.654;23.296;2023-07-20T11:29:16;93838.28;;;32.04;36.60
6024;BME280;3040;42.654;23.296;2023-07-20T11:31:44;93830.84;;;32.10;36.24
6024;BME280;3040;42.654;23.296;2023-07-20T11:34:13;93835.16;;;32.42;37.02
6024;BME280;3040;42.654;23.296;2023-07-20T11:36:40;93819.28;;;32.06;35.52
6024;BME280;3040;42.654;23.296;2023-07-20T11:39:08;93820.38;;;32.14;36.68
6024;BME280;3040;42.654;23.296;2023-07-20T11:41:35;93825.78;;;32.28;36.33
6024;BME280;3040;42.654;23.296;2023-07-20T11:44:05;93815.53;;;32.29;36.56
6024;BME280;3040;42.654;23.296;2023-07-20T11:46:33;93810.28;;;31.79;36.94
6024;BME280;3040;42.654;23.296;2023-07-20T11:49:01;93812.19;;;31.93;36.67
6024;BME280;3040;42.654;23.296;2023-07-20T11:51:28;93816.91;;;31.93;37.32
6024;BME280;3040;42.654;23.296;2023-07-20T11:53:55;93807.00;;;32.27;36.78
6024;BME280;3040;42.654;23.296;2023-07-20T11:56:23;93800.22;;;32.85;36.39
6024;BME280;3040;42.654;23.296;2023-07-20T11:58:53;93801.81;;;33.45;33.98
6024;BME280;3040;42.654;23.296;2023-07-20T12:01:23;93806.53;;;33.39;33.41
6024;BME280;3040;42.654;23.296;2023-07-20T12:03:50;93597.03;;;32.15;32.63
6024;BME280;3040;42.654;23.296;2023-07-20T12:06:17;93772.75;;;33.02;32.61
6024;BME280;3040;42.654;23.296;2023-07-20T12:08:43;93803.56;;;34.36;31.73
6024;BME280;3040;42.654;23.296;2023-07-20T12:11:10;93780.44;;;34.61;30.64
6024;BME280;3040;42.654;23.296;2023-07-20T12:13:38;93793.72;;;35.01;29.88
6024;BME280;3040;42.654;23.296;2023-07-20T12:16:12;93790.44;;;35.20;29.60
6024;BME280;3040;42.654;23.296;2023-07-20T12:18:41;93785.22;;;35.68;28.44
6024;BME280;3040;42.654;23.296;2023-07-20T12:21:09;93781.19;;;34.34;29.07
6024;BME280;3040;42.654;23.296;2023-07-20T12:23:37;93786.97;;;34.58;28.06
6024;BME280;3040;42.654;23.296;2023-07-20T12:26:06;93787.94;;;34.10;27.72
6024;BME280;3040;42.654;23.296;2023-07-20T12:28:36;93763.31;;;33.90;27.14
6024;BME280;3040;42.654;23.296;2023-07-20T12:31:04;93788.19;;;33.25;28.01
6024;BME280;3040;42.654;23.296;2023-07-20T12:33:31;93783.53;;;33.65;27.82
6024;BME280;3040;42.654;23.296;2023-07-20T12:35:59;93774.63;;;34.09;27.81
6024;BME280;3040;42.654;23.296;2023-07-20T12:38:26;93773.19;;;34.36;27.33
6024;BME280;3040;42.654;23.296;2023-07-20T12:40:53;93772.38;;;34.18;27.47
6024;BME280;3040;42.654;23.296;2023-07-20T12:43:20;93756.97;;;35.29;26.08
6024;BME280;3040;42.654;23.296;2023-07-20T12:45:47;93757.59;;;34.49;25.90
6024;BME280;3040;42.654;23.296;2023-07-20T12:48:14;93775.41;;;34.43;25.71
6024;BME280;3040;42.654;23.296;2023-07-20T12:50:41;93778.91;;;33.99;26.82
6024;BME280;3040;42.654;23.296;2023-07-20T12:53:09;93756.81;;;34.15;27.01
6024;BME280;3040;42.654;23.296;2023-07-20T12:55:36;93754.75;;;33.77;26.20
6024;BME280;3040;42.654;23.296;2023-07-20T12:58:03;93763.53;;;33.16;27.20
6024;BME280;3040;42.654;23.296;2023-07-20T13:00:30;93655.28;;;32.56;27.11
6024;BME280;3040;42.654;23.296;2023-07-20T13:02:57;93767.38;;;34.17;27.44
6024;BME280;3040;42.654;23.296;2023-07-20T13:05:24;93770.78;;;35.29;27.18
6024;BME280;3040;42.654;23.296;2023-07-20T13:07:51;93746.50;;;35.68;27.85
6024;BME280;3040;42.654;23.296;2023-07-20T13:10:19;93751.88;;;35.90;27.64
6024;BME280;3040;42.654;23.296;2023-07-20T13:12:45;93753.28;;;36.44;26.85
6024;BME280;3040;42.654;23.296;2023-07-20T13:15:12;93762.03;;;36.83;26.24